Time;durP1;ratioP1;P1;durP2;ratioP2;P2;SDS_P1;SDS_P2;PMS_P1;PMS_P2;Temp;Humidity;BMP_temperature;BMP_pressure;BME280_temperature;BME280_humidity;BME280_pressure;Samples;Min_cycle;Max_cycle;Signal;HPM_P1;HPM_P2
2022/09/27 00:00:12;;;;;;;3.50;1.23;;;;;;;;;;517135;28;4080;-61
2022/09/27 00:00:27;;;;;;;3.65;1.20;;;;;;;;;;521810;28;1181;-61
2022/09/27 00:00:43;;;;;;;4.83;1.30;;;;;;;;;;522577;27;1030;-61
2022/09/27 00:00:59;;;;;;;5.15;1.30;;;;;;;;;;525361;27;1105;-61
2022/09/27 00:01:15;;;;;;;5.05;1.38;;;;;;;;;;524711;27;1117;-61
2022/09/27 00:01:30;;;;;;;4.85;1.42;;;;;;;;;;522899;28;1262;-61
2022/09/27 00:01:46;;;;;;;6.33;1.40;;;;;;;;;;519412;28;1170;-61
2022/09/27 00:02:01;;;;;;;6.38;1.45;;;;;;;;;;520442;28;1624;-61
2022/09/27 00:02:17;;;;;;;4.57;1.40;;;;;;;;;;520360;28;1264;-61
2022/09/27 00:02:32;;;;;;;4.10;1.17;;;;;;;;;;521317;28;1221;-61
2022/09/27 00:02:48;;;;;;;4.07;1.10;;;;;;;;;;520590;28;1216;-61
2022/09/27 00:03:03;;;;;;;6.15;1.20;;;;;;;;;;519120;28;1395;-61
2022/09/27 00:03:19;;;;;;;6.50;1.30;;;;;;;;;;519497;28;1095;-61
2022/09/27 00:03:34;;;;;;;6.10;1.50;;;;;;;;;;522661;28;1109;-61
2022/09/27 00:03:54;;;;;;;7.87;1.53;;;;;;;;;;523768;28;1093;-61
2022/09/27 00:04:10;;;;;;;5.93;1.40;;;;;;;;;;523087;28;1385;-61
2022/09/27 00:04:26;;;;;;;5.65;1.40;;;;;;;;;;523389;28;1133;-61
2022/09/27 00:04:41;;;;;;;5.97;1.40;;;;;;;;;;521959;28;1914;-62
2022/09/27 00:04:57;;;;;;;4.13;1.30;;;;;;;;;;522822;28;1231;-61
2022/09/27 00:05:13;;;;;;;4.07;1.20;;;;;;;;;;525154;28;1085;-61
2022/09/27 00:05:29;;;;;;;6.18;1.30;;;;;;;;;;526111;27;1222;-61
2022/09/27 00:05:44;;;;;;;6.15;1.40;;;;;;;;;;522926;28;1240;-61
2022/09/27 00:06:09;;;;;;;5.23;1.47;;;;;;;;;;520576;28;1298;-61
2022/09/27 00:06:28;;;;;;;5.50;1.38;;;;;;;;;;521425;28;1149;-61
2022/09/27 00:06:43;;;;;;;6.32;1.38;;;;;;;;;;518494;28;1357;-61
2022/09/27 00:06:59;;;;;;;6.70;1.40;;;;;;;;;;518657;28;1142;-61
2022/09/27 00:07:14;;;;;;;4.50;1.20;;;;;;;;;;517563;28;1234;-61
2022/09/27 00:07:30;;;;;;;4.55;1.10;;;;;;;;;;519475;28;1381;-62
2022/09/27 00:07:45;;;;;;;5.97;1.30;;;;;;;;;;520956;28;1385;-61
2022/09/27 00:08:01;;;;;;;7.33;1.57;;;;;;;;;;519746;28;1176;-62
2022/09/27 00:08:17;;;;;;;6.53;1.52;;;;;;;;;;516789;28;1207;-61
2022/09/27 00:08:34;;;;;;;5.15;1.40;;;;;;;;;;518355;28;1189;-62
2022/09/27 00:08:50;;;;;;;6.28;1.48;;;;;;;;;;519669;28;1286;-62
2022/09/27 00:09:05;;;;;;;5.93;1.50;;;;;;;;;;518967;28;1275;-63
2022/09/27 00:09:21;;;;;;;4.70;1.20;;;;;;;;;;520378;28;1282;-62
2022/09/27 00:09:36;;;;;;;4.43;1.25;;;;;;;;;;522019;28;940;-61
2022/09/27 00:09:51;;;;;;;3.90;1.30;;;;;;;;;;522469;28;1059;-62
2022/09/27 00:10:07;;;;;;;5.22;1.27;;;;;;;;;;521813;28;1156;-61
2022/09/27 00:10:22;;;;;;;5.67;1.30;;;;;;;;;;522895;28;1165;-61
2022/09/27 00:10:38;;;;;;;6.65;1.48;;;;;;;;;;522953;28;1089;-62
2022/09/27 00:11:00;;;;;;;7.60;1.50;;;;;;;;;;524744;28;1069;-61
2022/09/27 00:11:29;;;;;;;5.70;1.38;;;;;;;;;;521971;28;1201;-61
2022/09/27 00:11:46;;;;;;;5.38;1.45;;;;;;;;;;521714;28;1201;-62
2022/09/27 00:12:02;;;;;;;8.15;1.60;;;;;;;;;;521781;28;1855;-61
2022/09/27 00:12:17;;;;;;;9.27;1.60;;;;;;;;;;522884;28;1196;-61
2022/09/27 00:12:33;;;;;;;6.70;1.40;;;;;;;;;;523918;28;1026;-62
2022/09/27 00:12:48;;;;;;;7.60;1.67;;;;;;;;;;523440;28;1070;-61
2022/09/27 00:13:04;;;;;;;6.97;1.70;;;;;;;;;;523629;28;1263;-62
2022/09/27 00:13:19;;;;;;;7.27;1.60;;;;;;;;;;523778;28;1243;-62
2022/09/27 00:13:34;;;;;;;7.43;1.60;;;;;;;;;;520860;28;1074;-62
2022/09/27 00:13:50;;;;;;;6.15;1.60;;;;;;;;;;521711;28;1454;-61
2022/09/27 00:14:06;;;;;;;7.13;1.70;;;;;;;;;;521895;28;1185;-61
2022/09/27 00:14:21;;;;;;;8.38;1.60;;;;;;;;;;524371;28;1018;-62
2022/09/27 00:14:37;;;;;;;7.57;1.60;;;;;;;;;;521121;28;1169;-62
2022/09/27 00:14:52;;;;;;;6.93;1.77;;;;;;;;;;523380;28;1098;-61
2022/09/27 00:15:08;;;;;;;6.83;1.80;;;;;;;;;;518154;28;2144;-61
2022/09/27 00:15:24;;;;;;;6.25;1.80;;;;;;;;;;523831;28;4188;-62
2022/09/27 00:15:39;;;;;;;5.83;1.67;;;;;;;;;;522014;28;1197;-61
2022/09/27 00:15:59;;;;;;;6.57;1.60;;;;;;;;;;524651;28;1195;-61
2022/09/27 00:16:15;;;;;;;5.78;1.67;;;;;;;;;;525485;28;1175;-61
2022/09/27 00:16:33;;;;;;;5.10;1.47;;;;;;;;;;522450;28;1298;-61
2022/09/27 00:16:49;;;;;;;4.95;1.50;;;;;;;;;;523871;28;1254;-61
2022/09/27 00:17:04;;;;;;;6.13;1.63;;;;;;;;;;524249;28;1145;-62
2022/09/27 00:17:19;;;;;;;6.23;1.70;;;;;;;;;;522927;28;1184;-62
2022/09/27 00:17:38;;;;;;;6.25;1.60;;;;;;;;;;520941;28;1138;-61
2022/09/27 00:17:54;;;;;;;5.85;1.50;;;;;;;;;;521078;28;1177;-61
2022/09/27 00:18:09;;;;;;;5.77;1.50;;;;;;;;;;517715;28;1327;-61
2022/09/27 00:18:24;;;;;;;5.43;1.50;;;;;;;;;;518125;28;1149;-61
2022/09/27 00:18:40;;;;;;;5.60;1.60;;;;;;;;;;518457;28;1174;-62
2022/09/27 00:18:59;;;;;;;7.73;1.80;;;;;;;;;;518964;28;1131;-62
2022/09/27 00:19:19;;;;;;;8.90;1.80;;;;;;;;;;515494;28;1535;-61
2022/09/27 00:19:34;;;;;;;7.10;1.77;;;;;;;;;;520098;28;1094;-61
2022/09/27 00:19:49;;;;;;;7.90;1.70;;;;;;;;;;519393;28;1221;-62
2022/09/27 00:20:06;;;;;;;9.03;1.70;;;;;;;;;;518662;28;1232;-62
2022/09/27 00:20:22;;;;;;;6.05;1.50;;;;;;;;;;521109;28;1161;-62
2022/09/27 00:20:37;;;;;;;6.23;1.67;;;;;;;;;;522219;28;1126;-62
2022/09/27 00:20:52;;;;;;;6.23;1.70;;;;;;;;;;524300;28;1047;-61
2022/09/27 00:21:11;;;;;;;5.35;1.70;;;;;;;;;;523162;28;1249;-61
2022/09/27 00:21:28;;;;;;;5.70;1.70;;;;;;;;;;524524;28;1239;-62
2022/09/27 00:21:45;;;;;;;7.28;1.80;;;;;;;;;;521910;28;1021;-61
2022/09/27 00:22:02;;;;;;;7.45;1.90;;;;;;;;;;525463;28;1188;-61
2022/09/27 00:22:17;;;;;;;8.18;1.95;;;;;;;;;;523323;28;1039;-61
2022/09/27 00:22:33;;;;;;;8.73;2.00;;;;;;;;;;522878;28;978;-62
2022/09/27 00:22:49;;;;;;;7.97;1.90;;;;;;;;;;522724;28;1270;-61
2022/09/27 00:23:04;;;;;;;6.60;1.83;;;;;;;;;;524420;28;1113;-61
2022/09/27 00:23:19;;;;;;;7.65;1.70;;;;;;;;;;524468;28;1314;-62
2022/09/27 00:23:35;;;;;;;8.10;1.63;;;;;;;;;;520181;28;1270;-61
2022/09/27 00:23:50;;;;;;;6.10;1.73;;;;;;;;;;522315;28;1155;-62
2022/09/27 00:24:06;;;;;;;6.33;1.90;;;;;;;;;;521731;28;1006;-61
2022/09/27 00:24:22;;;;;;;7.85;2.10;;;;;;;;;;522125;28;1215;-61
2022/09/27 00:24:37;;;;;;;7.70;2.00;;;;;;;;;;519901;28;2012;-61
2022/09/27 00:24:53;;;;;;;8.90;2.13;;;;;;;;;;522341;28;1180;-61
2022/09/27 00:25:08;;;;;;;8.00;2.08;;;;;;;;;;519717;28;1101;-61
2022/09/27 00:25:23;;;;;;;7.43;1.87;;;;;;;;;;521710;28;1147;-61
2022/09/27 00:25:39;;;;;;;7.83;1.80;;;;;;;;;;520014;28;1380;-61
2022/09/27 00:25:55;;;;;;;6.93;1.63;;;;;;;;;;520069;28;1180;-61
2022/09/27 00:26:12;;;;;;;6.57;1.77;;;;;;;;;;518648;28;1279;-61
2022/09/27 00:26:28;;;;;;;8.00;2.03;;;;;;;;;;518201;28;1444;-61
2022/09/27 00:26:45;;;;;;;9.88;2.10;;;;;;;;;;517989;28;1139;-62
2022/09/27 00:27:01;;;;;;;10.60;2.05;;;;;;;;;;519637;28;1278;-61
2022/09/27 00:27:17;;;;;;;8.48;1.88;;;;;;;;;;520639;28;1151;-63
2022/09/27 00:27:32;;;;;;;7.03;1.90;;;;;;;;;;518554;28;1177;-62
2022/09/27 00:27:48;;;;;;;6.93;1.90;;;;;;;;;;522307;28;1252;-61
2022/09/27 00:28:04;;;;;;;6.00;1.90;;;;;;;;;;521267;28;1135;-62
2022/09/27 00:28:19;;;;;;;7.05;2.00;;;;;;;;;;524254;28;1102;-61
2022/09/27 00:28:35;;;;;;;8.73;1.90;;;;;;;;;;522882;28;1243;-62
2022/09/27 00:28:51;;;;;;;8.85;1.90;;;;;;;;;;521197;28;1321;-62
2022/09/27 00:29:06;;;;;;;8.23;2.03;;;;;;;;;;519542;28;1258;-62
2022/09/27 00:29:21;;;;;;;7.43;2.07;;;;;;;;;;520747;28;1220;-62
2022/09/27 00:29:37;;;;;;;6.95;1.80;;;;;;;;;;521067;28;1220;-61
2022/09/27 00:29:52;;;;;;;7.50;1.70;;;;;;;;;;521981;28;1164;-61
2022/09/27 00:30:09;;;;;;;6.43;1.70;;;;;;;;;;516936;28;1921;-63
2022/09/27 00:30:24;;;;;;;5.32;1.73;;;;;;;;;;516646;28;5673;-62
2022/09/27 00:30:42;;;;;;;6.30;1.77;;;;;;;;;;518505;28;1083;-62
2022/09/27 00:30:58;;;;;;;8.00;1.90;;;;;;;;;;518724;28;1070;-61
2022/09/27 00:31:25;;;;;;;8.40;1.90;;;;;;;;;;518687;28;1121;-62
2022/09/27 00:31:40;;;;;;;7.20;1.77;;;;;;;;;;519203;28;1161;-61
2022/09/27 00:31:55;;;;;;;5.00;1.70;;;;;;;;;;521454;28;1169;-62
2022/09/27 00:32:11;;;;;;;5.03;1.77;;;;;;;;;;521225;28;1125;-61
2022/09/27 00:32:27;;;;;;;5.75;1.60;;;;;;;;;;519014;28;1677;-61
2022/09/27 00:32:42;;;;;;;8.67;1.80;;;;;;;;;;517651;28;1246;-61
2022/09/27 00:32:57;;;;;;;8.67;1.90;;;;;;;;;;519972;28;1149;-62
2022/09/27 00:33:12;;;;;;;7.10;1.90;;;;;;;;;;518803;28;1127;-61
2022/09/27 00:33:28;;;;;;;6.18;1.90;;;;;;;;;;516672;28;1241;-61
2022/09/27 00:33:43;;;;;;;6.73;1.83;;;;;;;;;;516584;28;1103;-61
2022/09/27 00:34:00;;;;;;;7.10;1.90;;;;;;;;;;519039;28;1205;-62
2022/09/27 00:34:21;;;;;;;7.30;1.80;;;;;;;;;;514281;28;1311;-62
2022/09/27 00:34:37;;;;;;;7.38;1.80;;;;;;;;;;519362;28;1185;-62
2022/09/27 00:34:53;;;;;;;8.67;2.00;;;;;;;;;;522223;28;1217;-62
2022/09/27 00:35:08;;;;;;;8.50;1.90;;;;;;;;;;521224;28;1342;-61
2022/09/27 00:35:23;;;;;;;7.50;1.90;;;;;;;;;;522255;28;1014;-62
2022/09/27 00:35:39;;;;;;;7.78;1.90;;;;;;;;;;522288;28;1279;-61
2022/09/27 00:35:54;;;;;;;7.70;1.93;;;;;;;;;;522599;28;1098;-62
2022/09/27 00:36:10;;;;;;;7.07;1.90;;;;;;;;;;524121;28;1035;-61
2022/09/27 00:36:27;;;;;;;7.17;2.00;;;;;;;;;;525580;28;1117;-61
2022/09/27 00:36:42;;;;;;;7.15;2.17;;;;;;;;;;521133;28;1153;-61
2022/09/27 00:36:57;;;;;;;6.33;2.00;;;;;;;;;;522938;28;1233;-61
2022/09/27 00:37:13;;;;;;;6.43;2.08;;;;;;;;;;522936;28;1109;-62
2022/09/27 00:37:28;;;;;;;7.97;2.10;;;;;;;;;;521146;28;1389;-62
2022/09/27 00:37:47;;;;;;;7.87;1.97;;;;;;;;;;518557;28;1314;-61
2022/09/27 00:38:02;;;;;;;7.38;2.05;;;;;;;;;;518383;28;1417;-62
2022/09/27 00:38:18;;;;;;;6.65;2.10;;;;;;;;;;515432;28;1217;-62
2022/09/27 00:38:33;;;;;;;7.23;2.00;;;;;;;;;;516383;28;1278;-61
2022/09/27 00:38:49;;;;;;;8.27;1.90;;;;;;;;;;515020;28;1223;-61
2022/09/27 00:39:04;;;;;;;7.53;1.85;;;;;;;;;;517910;28;1496;-62
2022/09/27 00:39:19;;;;;;;6.37;1.80;;;;;;;;;;517285;28;1177;-61
2022/09/27 00:39:37;;;;;;;7.40;1.90;;;;;;;;;;518742;28;1009;-62
2022/09/27 00:39:52;;;;;;;9.23;2.10;;;;;;;;;;516981;28;1107;-61
2022/09/27 00:40:08;;;;;;;8.10;2.20;;;;;;;;;;516929;28;1310;-61
2022/09/27 00:40:23;;;;;;;7.30;1.90;;;;;;;;;;516594;28;1499;-63
2022/09/27 00:40:39;;;;;;;7.75;1.90;;;;;;;;;;516597;28;1209;-62
2022/09/27 00:40:54;;;;;;;7.63;2.00;;;;;;;;;;517282;28;1058;-61
2022/09/27 00:41:20;;;;;;;7.60;2.00;;;;;;;;;;519049;28;1145;-63
2022/09/27 00:41:37;;;;;;;7.20;2.03;;;;;;;;;;516703;28;1370;-61
2022/09/27 00:41:52;;;;;;;7.47;1.90;;;;;;;;;;518006;28;1047;-62
2022/09/27 00:42:11;;;;;;;7.67;1.80;;;;;;;;;;520065;28;1184;-61
2022/09/27 00:42:27;;;;;;;7.55;1.98;;;;;;;;;;517456;28;1408;-61
2022/09/27 00:42:42;;;;;;;7.17;1.87;;;;;;;;;;518888;28;1067;-61
2022/09/27 00:42:57;;;;;;;7.15;1.92;;;;;;;;;;519330;28;1161;-62
2022/09/27 00:43:19;;;;;;;7.67;2.00;;;;;;;;;;518866;28;1042;-61
2022/09/27 00:43:52;;;;;;;7.88;1.90;;;;;;;;;;520455;28;1410;-61
2022/09/27 00:44:27;;;;;;;8.63;2.00;;;;;;;;;;523976;28;1133;-61
2022/09/27 00:45:21;;;;;;;6.55;1.77;;;;;;;;;;522649;27;1921;-61
2022/09/27 00:45:36;;;;;;;5.78;1.85;;;;;;;;;;516344;28;4356;-61
2022/09/27 00:45:58;;;;;;;6.70;1.90;;;;;;;;;;516878;28;1324;-61
2022/09/27 00:46:22;;;;;;;5.93;1.77;;;;;;;;;;518187;28;1177;-61
2022/09/27 00:46:37;;;;;;;4.70;1.77;;;;;;;;;;517778;28;1226;-61
2022/09/27 00:47:22;;;;;;;6.68;1.85;;;;;;;;;;324196;28;10001184;-61
2022/09/27 00:47:46;;;;;;;6.59;1.64;;;;;;;;;;170347;28;10002044;-61
2022/09/27 00:48:04;;;;;;;8.05;1.70;;;;;;;;;;513658;28;1321;-62
2022/09/27 00:48:23;;;;;;;7.20;1.73;;;;;;;;;;515714;28;1190;-61
2022/09/27 00:48:38;;;;;;;7.55;1.90;;;;;;;;;;515789;28;1056;-61
2022/09/27 00:49:19;;;;;;;7.47;1.97;;;;;;;;;;513608;28;1270;-61
2022/09/27 00:50:19;;;;;;;5.75;1.65;;;;;;;;;;517480;28;1201;-61
2022/09/27 00:50:38;;;;;;;6.53;1.80;;;;;;;;;;511715;28;1565;-61
2022/09/27 00:50:59;;;;;;;6.57;1.80;;;;;;;;;;511264;28;1171;-61
2022/09/27 00:51:15;;;;;;;5.38;1.63;;;;;;;;;;509937;28;1253;-61
2022/09/27 00:51:33;;;;;;;5.97;1.60;;;;;;;;;;511645;28;1143;-61
2022/09/27 00:51:54;;;;;;;5.90;1.70;;;;;;;;;;510729;28;1224;-61
2022/09/27 00:52:18;;;;;;;6.22;1.80;;;;;;;;;;512234;28;1102;-61
2022/09/27 00:52:40;;;;;;;5.95;1.88;;;;;;;;;;511325;28;1228;-62
2022/09/27 00:53:09;;;;;;;5.78;1.73;;;;;;;;;;511441;28;1040;-61
2022/09/27 00:53:30;;;;;;;6.10;1.70;;;;;;;;;;512284;28;1101;-61
2022/09/27 00:53:50;;;;;;;7.03;1.90;;;;;;;;;;510900;28;1235;-61
2022/09/27 00:54:10;;;;;;;4.90;1.73;;;;;;;;;;511736;28;1172;-61
2022/09/27 00:54:27;;;;;;;6.32;1.75;;;;;;;;;;511073;28;1712;-61
2022/09/27 00:54:46;;;;;;;8.07;1.83;;;;;;;;;;510795;28;1146;-61
2022/09/27 00:55:09;;;;;;;9.85;1.95;;;;;;;;;;509965;28;1226;-61
2022/09/27 00:55:33;;;;;;;6.90;1.88;;;;;;;;;;512769;28;1069;-61
2022/09/27 00:55:54;;;;;;;7.85;1.88;;;;;;;;;;509241;28;1333;-61
2022/09/27 00:56:21;;;;;;;6.57;1.80;;;;;;;;;;508747;28;1013;-61
2022/09/27 00:56:36;;;;;;;7.88;2.05;;;;;;;;;;510390;28;952;-61
2022/09/27 00:56:52;;;;;;;8.80;2.13;;;;;;;;;;509500;28;1053;-61
2022/09/27 00:57:08;;;;;;;9.00;2.00;;;;;;;;;;508575;28;1124;-61
2022/09/27 00:57:23;;;;;;;8.48;1.90;;;;;;;;;;508538;28;1144;-62
2022/09/27 00:57:41;;;;;;;8.63;2.03;;;;;;;;;;508616;28;1215;-61
2022/09/27 00:57:56;;;;;;;8.82;2.10;;;;;;;;;;511790;28;1056;-61
2022/09/27 00:58:16;;;;;;;8.45;1.90;;;;;;;;;;509066;28;1238;-62
2022/09/27 00:58:38;;;;;;;6.82;1.70;;;;;;;;;;511750;28;1042;-61
2022/09/27 00:59:00;;;;;;;6.47;2.00;;;;;;;;;;510222;28;1187;-61
2022/09/27 00:59:25;;;;;;;6.20;2.13;;;;;;;;;;510321;28;1207;-61
2022/09/27 00:59:45;;;;;;;7.57;1.92;;;;;;;;;;507955;28;1265;-61
2022/09/27 01:00:11;;;;;;;6.22;1.75;;;;;;;;;;511209;28;1300;-61
2022/09/27 01:00:26;;;;;;;7.68;2.30;;;;;;;;;;509920;28;4682;-61
2022/09/27 01:00:45;;;;;;;8.18;2.13;;;;;;;;;;507211;28;1245;-61
2022/09/27 01:01:04;;;;;;;7.35;1.90;;;;;;;;;;511534;28;1055;-61
2022/09/27 01:01:20;;;;;;;7.78;2.20;;;;;;;;;;510854;28;1236;-61
2022/09/27 01:01:35;;;;;;;7.83;2.17;;;;;;;;;;509427;28;1205;-61
2022/09/27 01:01:51;;;;;;;8.10;2.20;;;;;;;;;;508944;28;1101;-61
2022/09/27 01:02:07;;;;;;;7.73;2.10;;;;;;;;;;508847;29;1200;-61
2022/09/27 01:02:22;;;;;;;8.18;1.92;;;;;;;;;;507236;29;1407;-61
2022/09/27 01:02:40;;;;;;;7.22;1.92;;;;;;;;;;505552;29;1227;-62
2022/09/27 01:02:57;;;;;;;5.97;1.90;;;;;;;;;;507837;29;1077;-61
2022/09/27 01:03:19;;;;;;;5.90;1.80;;;;;;;;;;506394;29;975;-60
2022/09/27 01:03:46;;;;;;;8.10;1.80;;;;;;;;;;507916;28;1184;-61
2022/09/27 01:04:10;;;;;;;9.25;2.05;;;;;;;;;;508390;28;1148;-62
2022/09/27 01:04:28;;;;;;;7.18;2.08;;;;;;;;;;510542;28;1258;-61
2022/09/27 01:04:44;;;;;;;8.20;2.05;;;;;;;;;;510867;28;1915;-61
2022/09/27 01:05:00;;;;;;;7.32;1.95;;;;;;;;;;512572;28;1918;-61
2022/09/27 01:05:19;;;;;;;6.33;2.13;;;;;;;;;;508700;28;1348;-62
2022/09/27 01:05:34;;;;;;;6.15;2.30;;;;;;;;;;509556;28;1387;-61
2022/09/27 01:05:50;;;;;;;6.23;2.00;;;;;;;;;;507867;29;1499;-61
2022/09/27 01:06:07;;;;;;;7.90;2.10;;;;;;;;;;507861;29;1228;-61
2022/09/27 01:06:23;;;;;;;8.02;2.10;;;;;;;;;;505287;29;1383;-61
2022/09/27 01:06:38;;;;;;;9.45;2.08;;;;;;;;;;507315;28;1458;-62
2022/09/27 01:06:54;;;;;;;8.47;2.17;;;;;;;;;;505740;29;1147;-62
2022/09/27 01:07:09;;;;;;;6.88;2.13;;;;;;;;;;507243;28;986;-61
2022/09/27 01:07:24;;;;;;;6.67;2.07;;;;;;;;;;508653;28;1199;-61
2022/09/27 01:07:40;;;;;;;7.20;2.20;;;;;;;;;;503667;29;1085;-61
2022/09/27 01:07:55;;;;;;;6.93;2.20;;;;;;;;;;504189;29;1196;-61
2022/09/27 01:08:10;;;;;;;5.97;1.90;;;;;;;;;;504680;29;1397;-61
2022/09/27 01:08:26;;;;;;;5.67;1.83;;;;;;;;;;506647;29;1125;-61
2022/09/27 01:08:41;;;;;;;6.15;1.95;;;;;;;;;;504049;29;1070;-62
2022/09/27 01:08:56;;;;;;;7.83;2.07;;;;;;;;;;507967;29;1191;-62
2022/09/27 01:09:12;;;;;;;7.30;2.13;;;;;;;;;;505910;29;1245;-61
2022/09/27 01:09:28;;;;;;;7.35;2.28;;;;;;;;;;506903;29;1176;-62
2022/09/27 01:09:43;;;;;;;8.18;2.15;;;;;;;;;;506220;29;1392;-61
2022/09/27 01:09:59;;;;;;;8.33;2.20;;;;;;;;;;508076;28;1164;-61
2022/09/27 01:10:15;;;;;;;8.57;2.35;;;;;;;;;;507091;28;1231;-62
2022/09/27 01:10:39;;;;;;;8.25;2.30;;;;;;;;;;506955;29;1366;-61
2022/09/27 01:11:12;;;;;;;8.35;2.20;;;;;;;;;;506397;28;1206;-62
2022/09/27 01:11:43;;;;;;;5.60;1.95;;;;;;;;;;507178;28;1069;-62
2022/09/27 01:12:30;;;;;;;10.02;2.38;;;;;;;;;;510559;28;1148;-61
2022/09/27 01:13:26;;;;;;;8.10;2.30;;;;;;;;;;505928;29;1208;-61
2022/09/27 01:14:18;;;;;;;9.68;2.15;;;;;;;;;;511617;28;1044;-61
2022/09/27 01:14:42;;;;;;;7.93;1.73;;;;;;;;;;507584;28;1088;-62
2022/09/27 01:15:19;;;;;;;6.50;2.08;;;;;;;;;;509894;28;974;-62
2022/09/27 01:15:48;;;;;;;5.63;2.00;;;;;;;;;;509873;28;4395;-61
2022/09/27 01:16:16;;;;;;;5.82;1.60;;;;;;;;;;509716;28;1258;-61
2022/09/27 01:16:50;;;;;;;6.55;1.58;;;;;;;;;;511654;28;1471;-61
2022/09/27 01:17:35;;;;;;;4.70;1.67;;;;;;;;;;510547;28;1046;-61
2022/09/27 01:18:16;;;;;;;4.28;1.50;;;;;;;;;;517846;28;1221;-61
2022/09/27 01:18:49;;;;;;;6.30;1.73;;;;;;;;;;518611;28;1209;-62
2022/09/27 01:19:33;;;;;;;3.72;1.60;;;;;;;;;;516419;28;1237;-60
2022/09/27 01:20:22;;;;;;;7.53;1.95;;;;;;;;;;516506;28;1326;-61
2022/09/27 01:20:54;;;;;;;6.20;2.00;;;;;;;;;;517689;28;1413;-60
2022/09/27 01:21:38;;;;;;;5.80;1.70;;;;;;;;;;515531;28;1206;-60
2022/09/27 01:22:10;;;;;;;6.78;1.65;;;;;;;;;;512451;28;1043;-60
2022/09/27 01:22:30;;;;;;;4.32;1.40;;;;;;;;;;514753;28;1167;-61
2022/09/27 01:22:54;;;;;;;4.55;1.40;;;;;;;;;;517134;28;1036;-60
2022/09/27 01:23:28;;;;;;;3.80;1.50;;;;;;;;;;518080;28;1133;-61
2022/09/27 01:23:52;;;;;;;4.68;1.52;;;;;;;;;;519210;28;1174;-61
2022/09/27 01:24:40;;;;;;;4.93;1.50;;;;;;;;;;520167;28;982;-61
2022/09/27 01:25:18;;;;;;;5.95;1.55;;;;;;;;;;512165;28;1296;-61
2022/09/27 01:26:04;;;;;;;4.68;1.60;;;;;;;;;;511487;28;1235;-62
2022/09/27 01:26:41;;;;;;;3.90;1.35;;;;;;;;;;519299;28;1209;-61
2022/09/27 01:27:23;;;;;;;4.50;1.40;;;;;;;;;;522543;28;1058;-61
2022/09/27 01:28:17;;;;;;;5.18;1.50;;;;;;;;;;521922;28;1232;-60
2022/09/27 01:28:51;;;;;;;5.00;1.20;;;;;;;;;;525528;28;1109;-60
2022/09/27 01:29:49;;;;;;;3.50;1.17;;;;;;;;;;523686;28;1168;-61
2022/09/27 01:30:20;;;;;;;4.65;1.00;;;;;;;;;;511026;28;1981;-61
2022/09/27 01:30:44;;;;;;;5.65;1.10;;;;;;;;;;525058;28;4338;-61
2022/09/27 01:31:20;;;;;;;6.03;1.17;;;;;;;;;;522584;28;1261;-61
2022/09/27 01:31:47;;;;;;;3.30;1.00;;;;;;;;;;522981;28;1044;-60
2022/09/27 01:32:18;;;;;;;2.10;1.00;;;;;;;;;;521199;28;1162;-61
2022/09/27 01:32:42;;;;;;;3.47;0.90;;;;;;;;;;523079;28;1222;-60
2022/09/27 01:33:30;;;;;;;3.20;0.90;;;;;;;;;;523752;28;1110;-61
2022/09/27 01:34:03;;;;;;;3.35;0.82;;;;;;;;;;522871;28;1245;-61
2022/09/27 01:34:25;;;;;;;3.95;0.80;;;;;;;;;;524263;28;995;-61
2022/09/27 01:34:50;;;;;;;3.22;0.90;;;;;;;;;;522242;28;1220;-61
2022/09/27 01:35:06;;;;;;;2.28;0.70;;;;;;;;;;520273;28;1890;-61
2022/09/27 01:35:22;;;;;;;1.48;0.60;;;;;;;;;;523521;28;1128;-61
2022/09/27 01:36:04;;;;;;;2.47;0.73;;;;;;;;;;520521;28;1129;-62
2022/09/27 01:36:29;;;;;;;2.13;0.80;;;;;;;;;;520631;28;1201;-61
2022/09/27 01:36:50;;;;;;;3.00;0.80;;;;;;;;;;523986;28;1253;-61
2022/09/27 01:37:26;;;;;;;2.58;0.68;;;;;;;;;;524183;27;1252;-60
2022/09/27 01:37:51;;;;;;;2.50;0.70;;;;;;;;;;522440;28;1239;-61
2022/09/27 01:38:46;;;;;;;2.33;0.70;;;;;;;;;;522253;28;1345;-61
2022/09/27 01:39:07;;;;;;;2.70;0.60;;;;;;;;;;513300;28;1544;-62
2022/09/27 01:39:37;;;;;;;2.58;0.70;;;;;;;;;;513867;28;1079;-61
2022/09/27 01:39:58;;;;;;;2.65;0.60;;;;;;;;;;523698;28;1094;-60
2022/09/27 01:40:23;;;;;;;3.38;0.68;;;;;;;;;;525505;27;1062;-61
2022/09/27 01:40:58;;;;;;;2.67;0.68;;;;;;;;;;525068;27;1173;-61
2022/09/27 01:41:19;;;;;;;2.85;0.63;;;;;;;;;;524055;27;1487;-62
2022/09/27 01:41:52;;;;;;;2.42;0.70;;;;;;;;;;526652;27;1100;-61
2022/09/27 01:42:35;;;;;;;1.63;0.50;;;;;;;;;;522612;28;1246;-61
2022/09/27 01:42:58;;;;;;;1.98;0.55;;;;;;;;;;523683;28;1125;-61
2022/09/27 01:43:16;;;;;;;1.98;0.60;;;;;;;;;;523174;28;1228;-61
2022/09/27 01:43:41;;;;;;;1.40;0.50;;;;;;;;;;523636;28;1089;-61
2022/09/27 01:44:06;;;;;;;2.20;0.60;;;;;;;;;;523951;28;963;-61
2022/09/27 01:44:47;;;;;;;2.38;0.63;;;;;;;;;;526059;28;1049;-61
2022/09/27 01:45:13;;;;;;;1.20;0.50;;;;;;;;;;523466;27;2187;-60
2022/09/27 01:45:38;;;;;;;1.10;0.50;;;;;;;;;;525974;27;4348;-62
2022/09/27 01:46:35;;;;;;;1.15;0.50;;;;;;;;;;524735;27;1093;-61
2022/09/27 01:46:55;;;;;;;2.55;0.63;;;;;;;;;;516511;28;1010;-61
2022/09/27 01:47:19;;;;;;;1.10;0.50;;;;;;;;;;517454;28;1182;-61
2022/09/27 01:47:45;;;;;;;1.50;0.45;;;;;;;;;;515200;28;1199;-61
2022/09/27 01:48:12;;;;;;;2.63;0.60;;;;;;;;;;513602;28;1253;-61
2022/09/27 01:48:51;;;;;;;1.17;0.47;;;;;;;;;;515730;28;1095;-61
2022/09/27 01:49:17;;;;;;;1.25;0.40;;;;;;;;;;515430;28;1143;-61
2022/09/27 01:49:40;;;;;;;2.45;0.50;;;;;;;;;;515650;28;1131;-61
2022/09/27 01:49:55;;;;;;;2.53;0.40;;;;;;;;;;518482;28;1162;-61
2022/09/27 01:50:16;;;;;;;1.17;0.40;;;;;;;;;;513822;28;1204;-61
2022/09/27 01:50:36;;;;;;;1.23;0.50;;;;;;;;;;515104;28;1241;-62
2022/09/27 01:51:03;;;;;;;1.50;0.50;;;;;;;;;;514818;28;1150;-60
2022/09/27 01:51:34;;;;;;;1.17;0.40;;;;;;;;;;516091;28;1186;-60
2022/09/27 01:51:56;;;;;;;1.55;0.50;;;;;;;;;;514791;28;1252;-62
2022/09/27 01:52:15;;;;;;;1.70;0.47;;;;;;;;;;517156;28;1384;-61
2022/09/27 01:52:36;;;;;;;1.55;0.40;;;;;;;;;;516693;28;1056;-61
2022/09/27 01:53:13;;;;;;;1.85;0.60;;;;;;;;;;517394;28;1404;-61
2022/09/27 01:53:34;;;;;;;1.52;0.60;;;;;;;;;;512251;28;1450;-61
2022/09/27 01:53:52;;;;;;;1.50;0.43;;;;;;;;;;514193;28;1462;-62
2022/09/27 01:54:12;;;;;;;1.42;0.30;;;;;;;;;;512746;28;1104;-62
2022/09/27 01:54:36;;;;;;;1.55;0.40;;;;;;;;;;514898;28;1029;-61
2022/09/27 01:54:57;;;;;;;2.40;0.50;;;;;;;;;;512096;28;1475;-62
2022/09/27 01:55:16;;;;;;;1.27;0.40;;;;;;;;;;512234;28;1230;-61
2022/09/27 01:55:36;;;;;;;1.52;0.40;;;;;;;;;;514441;28;1195;-61
2022/09/27 01:55:54;;;;;;;1.63;0.50;;;;;;;;;;515648;28;1023;-61
2022/09/27 01:56:21;;;;;;;2.30;0.50;;;;;;;;;;512789;28;1453;-61
2022/09/27 01:56:50;;;;;;;1.73;0.40;;;;;;;;;;513775;28;1135;-61
2022/09/27 01:57:09;;;;;;;1.13;0.43;;;;;;;;;;514285;28;1442;-61
2022/09/27 01:57:30;;;;;;;0.70;0.40;;;;;;;;;;514398;28;1206;-62
2022/09/27 01:57:55;;;;;;;1.10;0.30;;;;;;;;;;515372;28;1200;-61
2022/09/27 01:58:14;;;;;;;1.45;0.40;;;;;;;;;;514540;28;1178;-61
2022/09/27 01:58:51;;;;;;;0.73;0.35;;;;;;;;;;516371;28;1258;-61
2022/09/27 01:59:24;;;;;;;1.58;0.40;;;;;;;;;;515247;28;2076;-61
2022/09/27 01:59:50;;;;;;;1.27;0.50;;;;;;;;;;515618;28;985;-61
2022/09/27 02:00:09;;;;;;;2.20;0.40;;;;;;;;;;510279;28;1823;-61
2022/09/27 02:00:25;;;;;;;2.75;0.40;;;;;;;;;;512167;28;4944;-61
2022/09/27 02:00:44;;;;;;;2.23;0.50;;;;;;;;;;511247;28;1269;-61
2022/09/27 02:01:00;;;;;;;1.65;0.50;;;;;;;;;;513868;28;1139;-61
2022/09/27 02:01:17;;;;;;;2.08;0.50;;;;;;;;;;513993;28;960;-61
2022/09/27 02:01:35;;;;;;;2.05;0.40;;;;;;;;;;513855;28;1259;-61
2022/09/27 02:01:51;;;;;;;2.10;0.40;;;;;;;;;;513309;28;1206;-62
2022/09/27 02:02:08;;;;;;;2.33;0.50;;;;;;;;;;510992;28;1304;-62
2022/09/27 02:02:27;;;;;;;1.85;0.50;;;;;;;;;;515092;28;1206;-61
2022/09/27 02:02:49;;;;;;;1.55;0.50;;;;;;;;;;516893;28;1015;-62
2022/09/27 02:03:10;;;;;;;1.75;0.50;;;;;;;;;;516225;28;1095;-61
2022/09/27 02:03:39;;;;;;;1.42;0.38;;;;;;;;;;515802;28;1400;-61
2022/09/27 02:03:57;;;;;;;1.42;0.40;;;;;;;;;;516329;28;1213;-61
2022/09/27 02:04:19;;;;;;;1.60;0.40;;;;;;;;;;514848;28;1700;-61
2022/09/27 02:04:37;;;;;;;1.40;0.32;;;;;;;;;;516534;28;1074;-61
2022/09/27 02:04:56;;;;;;;1.10;0.40;;;;;;;;;;517740;28;1070;-62
2022/09/27 02:05:16;;;;;;;1.73;0.40;;;;;;;;;;518150;28;1075;-62
2022/09/27 02:05:41;;;;;;;1.70;0.40;;;;;;;;;;517829;28;1150;-61
2022/09/27 02:06:11;;;;;;;2.05;0.40;;;;;;;;;;518393;28;1201;-61
2022/09/27 02:06:40;;;;;;;2.08;0.50;;;;;;;;;;515163;28;1273;-61
2022/09/27 02:07:07;;;;;;;1.35;0.50;;;;;;;;;;513668;28;1218;-61
2022/09/27 02:07:28;;;;;;;2.17;0.50;;;;;;;;;;516804;28;1055;-61
2022/09/27 02:07:52;;;;;;;1.83;0.50;;;;;;;;;;514634;28;992;-61
2022/09/27 02:08:16;;;;;;;2.35;0.50;;;;;;;;;;515998;28;984;-61
2022/09/27 02:08:41;;;;;;;1.90;0.50;;;;;;;;;;514467;28;1140;-62
2022/09/27 02:09:04;;;;;;;1.50;0.40;;;;;;;;;;518311;28;957;-61
2022/09/27 02:09:45;;;;;;;1.27;0.40;;;;;;;;;;518027;28;1212;-61
2022/09/27 02:10:06;;;;;;;1.30;0.40;;;;;;;;;;518098;28;1200;-60
2022/09/27 02:10:32;;;;;;;1.20;0.43;;;;;;;;;;518484;28;1299;-61
2022/09/27 02:10:50;;;;;;;1.08;0.30;;;;;;;;;;517653;28;1054;-61
2022/09/27 02:11:10;;;;;;;1.33;0.40;;;;;;;;;;515150;28;1254;-61
2022/09/27 02:11:26;;;;;;;1.92;0.40;;;;;;;;;;515865;28;1193;-61
2022/09/27 02:11:46;;;;;;;1.88;0.50;;;;;;;;;;513171;28;1130;-62
2022/09/27 02:12:05;;;;;;;1.20;0.40;;;;;;;;;;514304;28;1147;-61